Time;durP1;ratioP1;P1;durP2;ratioP2;P2;SDS_P1;SDS_P2;PMS_P1;PMS_P2;Temp;Humidity;BMP_temperature;BMP_pressure;BME280_temperature;BME280_humidity;BME280_pressure;Samples;Min_cycle;Max_cycle;Signal;HPM_P1;HPM_P2
2022/06/22 17:31:14;;;;;;;15.98;8.40;;;27.20;99.90;;;;;;5135801;27;20867;-83
2022/06/22 17:34:03;;;;;;;22.90;9.27;;;26.80;99.90;;;;;;5125823;28;20019;-92
2022/06/22 17:36:51;;;;;;;14.05;8.70;;;26.90;99.90;;;;;;5103639;28;20482;-82
2022/06/22 17:39:20;;;;;;;14.82;8.48;;;26.80;99.90;;;;;;5120840;28;20030;-83
2022/06/22 17:42:02;;;;;;;20.08;8.82;;;26.80;99.90;;;;;;5125664;28;20586;-82
2022/06/22 17:44:43;;;;;;;16.23;7.78;;;26.70;99.90;;;;;;5118560;28;20012;-82
2022/06/22 17:47:24;;;;;;;16.88;7.60;;;26.90;99.90;;;;;;5106017;28;20505;-82
2022/06/22 17:49:50;;;;;;;16.27;7.50;;;26.90;99.90;;;;;;5122008;28;20088;-82
2022/06/22 17:52:22;;;;;;;15.75;8.35;;;27.00;99.90;;;;;;5106183;28;20052;-83
2022/06/22 17:55:06;;;;;;;15.27;8.10;;;27.10;99.90;;;;;;5098777;28;20036;-83
2022/06/22 17:57:40;;;;;;;17.23;8.18;;;27.20;99.90;;;;;;5123056;28;20449;-83
2022/06/22 18:00:26;;;;;;;17.05;8.35;;;27.20;99.90;;;;;;5095364;28;20036;-83
2022/06/22 18:03:10;;;;;;;16.75;9.13;;;27.20;99.90;;;;;;5123561;28;20036;-83
2022/06/22 18:06:05;;;;;;;18.23;8.80;;;27.20;99.90;;;;;;5111608;28;20069;-83
2022/06/22 18:08:39;;;;;;;19.08;10.18;;;27.10;99.90;;;;;;5104702;28;20038;-82
2022/06/22 18:11:14;;;;;;;15.20;8.65;;;27.10;99.90;;;;;;5112278;28;20059;-83
2022/06/22 18:13:52;;;;;;;11.40;7.75;;;27.10;99.90;;;;;;5087858;28;20103;-83
2022/06/22 18:16:33;;;;;;;22.67;8.48;;;27.10;99.90;;;;;;5104806;28;20086;-82
2022/06/22 18:18:59;;;;;;;15.68;8.57;;;27.10;99.90;;;;;;5107184;28;20037;-82
2022/06/22 18:21:34;;;;;;;17.45;8.77;;;27.10;99.90;;;;;;5114581;28;20020;-83
2022/06/22 18:24:22;;;;;;;16.10;8.45;;;27.00;99.90;;;;;;5107658;28;20023;-84
2022/06/22 18:26:51;;;;;;;16.42;8.70;;;26.90;99.90;;;;;;5112324;28;20030;-81
2022/06/22 18:29:25;;;;;;;15.23;9.18;;;26.80;99.90;;;;;;5108278;28;20047;-82
2022/06/22 18:32:06;;;;;;;12.95;8.85;;;26.60;99.90;;;;;;5109402;28;20034;-82
2022/06/22 18:34:42;;;;;;;13.98;9.27;;;26.50;99.90;;;;;;5097960;28;20557;-81
2022/06/22 18:37:29;;;;;;;30.45;9.73;;;26.50;99.90;;;;;;5115395;28;20028;-87
2022/06/22 18:42:47;;;;;;;19.35;9.65;;;26.20;99.90;;;;;;5110342;28;20076;-81
2022/06/22 18:45:26;;;;;;;22.70;10.50;;;26.00;99.90;;;;;;5088604;28;20497;-80
2022/06/22 18:47:56;;;;;;;20.27;11.00;;;25.90;99.90;;;;;;5093050;28;20055;-79
2022/06/22 18:50:31;;;;;;;21.88;10.05;;;25.80;99.90;;;;;;5085931;28;20047;-81
2022/06/22 18:53:04;;;;;;;16.17;9.80;;;25.80;99.90;;;;;;5085149;28;20115;-81
2022/06/22 18:55:38;;;;;;;22.52;10.10;;;25.80;99.90;;;;;;5102808;28;20035;-81
2022/06/22 18:58:16;;;;;;;12.98;10.15;;;25.70;99.90;;;;;;5081373;28;20016;-80
2022/06/22 19:00:52;;;;;;;15.73;10.30;;;25.60;99.90;;;;;;5102081;28;20026;-81
2022/06/22 19:03:34;;;;;;;20.15;10.43;;;25.60;99.90;;;;;;5116734;27;20035;-83
2022/06/22 19:06:12;;;;;;;12.68;8.80;;;25.60;99.90;;;;;;5075871;28;20399;-83
2022/06/22 19:08:43;;;;;;;12.98;7.80;;;25.60;99.90;;;;;;5098325;28;20372;-81
2022/06/22 19:11:23;;;;;;;15.02;8.82;;;25.60;99.90;;;;;;5106038;27;20089;-80
2022/06/22 19:13:58;;;;;;;15.43;7.95;;;25.70;99.90;;;;;;5092967;28;20024;-80
2022/06/22 19:16:33;;;;;;;16.92;8.85;;;25.70;99.90;;;;;;5099805;28;20110;-80
2022/06/22 19:19:34;;;;;;;16.45;8.52;;;25.70;99.90;;;;;;5105949;28;20432;-82
2022/06/22 19:22:18;;;;;;;16.15;8.73;;;25.70;99.90;;;;;;5011749;28;20026;-82
2022/06/22 19:24:54;;;;;;;17.90;10.40;;;25.70;99.90;;;;;;5095678;28;20039;-83
2022/06/22 19:27:37;;;;;;;19.58;11.85;;;25.60;99.90;;;;;;5099387;28;20030;-82
2022/06/22 19:30:06;;;;;;;17.23;11.32;;;25.60;99.90;;;;;;5097736;28;20131;-82
2022/06/22 19:32:51;;;;;;;18.33;11.50;;;25.50;99.90;;;;;;5105640;27;20111;-82
2022/06/22 19:35:26;;;;;;;20.70;12.30;;;25.50;99.90;;;;;;5099575;28;20028;-83
2022/06/22 19:38:36;;;;;;;27.25;14.60;;;25.50;99.90;;;;;;5077170;28;20157;-83
2022/06/22 19:41:11;;;;;;;21.58;12.77;;;25.40;99.90;;;;;;5101737;27;20039;-84
2022/06/22 19:44:01;;;;;;;21.15;11.57;;;25.30;99.90;;;;;;5080799;28;20035;-84
2022/06/22 19:46:58;;;;;;;25.25;10.27;;;25.30;99.90;;;;;;5094024;28;20478;-85
2022/06/22 19:49:41;;;;;;;21.13;9.95;;;25.30;99.90;;;;;;5096409;28;20098;-84
2022/06/22 19:52:22;;;;;;;13.43;9.00;;;25.20;99.90;;;;;;5080637;28;20111;-84
2022/06/22 19:55:12;;;;;;;21.75;8.98;;;25.30;99.90;;;;;;5075498;28;20059;-82
2022/06/22 19:57:38;;;;;;;15.27;8.75;;;25.20;99.90;;;;;;5100667;28;20019;-84
2022/06/22 20:00:05;;;;;;;14.23;8.95;;;25.30;99.90;;;;;;5102113;28;20053;-84
2022/06/22 20:02:47;;;;;;;14.20;7.80;;;25.20;99.90;;;;;;5079621;27;20030;-83
2022/06/22 20:05:21;;;;;;;17.60;8.80;;;25.20;99.90;;;;;;5077161;28;20803;-83
2022/06/22 20:08:02;;;;;;;18.08;10.20;;;25.20;99.90;;;;;;5099410;28;20024;-85
2022/06/22 20:10:48;;;;;;;18.90;10.63;;;25.20;99.90;;;;;;5100266;27;20504;-84
2022/06/22 20:13:19;;;;;;;17.38;11.50;;;25.10;99.90;;;;;;5077494;28;20051;-83
2022/06/22 20:16:01;;;;;;;14.20;10.00;;;25.00;99.90;;;;;;5097406;28;20032;-83
2022/06/22 20:18:27;;;;;;;21.00;10.18;;;25.10;99.90;;;;;;5098484;28;20065;-83
2022/06/22 20:21:36;;;;;;;15.10;10.35;;;25.10;99.90;;;;;;5102123;27;20438;-84
2022/06/22 20:24:28;;;;;;;22.45;10.27;;;25.10;99.90;;;;;;5020812;27;20068;-85
2022/06/22 20:27:08;;;;;;;21.35;10.68;;;25.10;99.90;;;;;;5107791;28;20765;-84
2022/06/22 20:29:48;;;;;;;14.18;9.38;;;25.10;99.90;;;;;;5100983;28;20404;-81
2022/06/22 20:32:33;;;;;;;18.70;10.65;;;25.20;99.90;;;;;;5099494;27;20063;-82
2022/06/22 20:35:15;;;;;;;19.10;9.95;;;25.20;99.90;;;;;;5095576;28;20421;-81
2022/06/22 20:37:43;;;;;;;15.68;10.00;;;25.20;99.90;;;;;;5096781;28;20058;-84
2022/06/22 20:40:16;;;;;;;17.10;10.40;;;25.20;99.90;;;;;;5102635;28;20023;-82
2022/06/22 20:43:08;;;;;;;17.02;10.90;;;25.20;99.90;;;;;;5097552;28;20054;-83
2022/06/22 20:45:36;;;;;;;23.63;10.80;;;25.20;99.90;;;;;;5099669;28;20115;-82
2022/06/22 20:48:50;;;;;;;20.27;10.65;;;25.10;99.90;;;;;;5100093;28;20020;-82
2022/06/22 20:51:30;;;;;;;16.27;10.07;;;25.20;99.90;;;;;;5091607;28;20059;-81
2022/06/22 20:54:01;;;;;;;20.38;10.43;;;25.10;99.90;;;;;;5103187;28;20104;-82
2022/06/22 20:56:48;;;;;;;25.10;11.52;;;25.10;99.90;;;;;;5099449;28;20030;-83
2022/06/22 20:59:28;;;;;;;21.90;9.52;;;25.10;99.90;;;;;;5077851;28;20100;-81
2022/06/22 21:01:55;;;;;;;20.00;9.50;;;25.10;99.90;;;;;;5096316;28;20016;-82
2022/06/22 21:04:21;;;;;;;18.27;9.38;;;25.10;99.90;;;;;;5113268;27;20527;-82
2022/06/22 21:06:53;;;;;;;15.43;8.73;;;25.10;99.90;;;;;;5099798;28;20094;-81
2022/06/22 21:09:21;;;;;;;16.00;8.40;;;25.10;99.90;;;;;;5104248;28;20490;-83
2022/06/22 21:12:09;;;;;;;16.20;8.65;;;25.10;99.90;;;;;;5098380;27;20648;-84
2022/06/22 21:14:35;;;;;;;11.15;8.15;;;25.10;99.90;;;;;;5098123;28;20057;-84
2022/06/22 21:17:26;;;;;;;16.67;8.40;;;25.10;99.90;;;;;;5102304;28;20077;-86
2022/06/22 21:20:00;;;;;;;13.52;8.30;;;25.00;99.90;;;;;;5083297;28;20451;-86
2022/06/22 21:22:28;;;;;;;18.50;8.48;;;25.00;99.90;;;;;;5104996;28;20023;-84
2022/06/22 21:24:54;;;;;;;11.73;8.07;;;25.00;99.90;;;;;;5085899;28;20024;-83
2022/06/22 21:27:25;;;;;;;14.98;8.18;;;25.00;99.90;;;;;;5099023;28;20089;-84
2022/06/22 21:30:19;;;;;;;14.75;8.00;;;25.00;99.90;;;;;;5088888;28;20083;-86
2022/06/22 21:32:46;;;;;;;19.17;8.10;;;25.00;99.90;;;;;;5098976;28;20550;-85
2022/06/22 21:35:30;;;;;;;14.07;7.75;;;24.90;99.90;;;;;;5097450;28;20028;-87
2022/06/22 21:38:07;;;;;;;13.45;7.47;;;24.90;99.90;;;;;;5099961;28;20028;-92
2022/06/22 21:40:40;;;;;;;11.63;7.60;;;25.00;99.90;;;;;;5110444;28;20511;-84
2022/06/22 21:43:27;;;;;;;12.90;7.80;;;24.90;99.90;;;;;;5097380;28;20054;-83
2022/06/22 21:46:09;;;;;;;13.93;7.25;;;24.90;99.90;;;;;;5095775;28;20095;-84
2022/06/22 21:48:54;;;;;;;12.45;7.20;;;24.80;99.90;;;;;;5096245;28;20054;-82
2022/06/22 21:51:54;;;;;;;14.30;7.72;;;24.80;99.90;;;;;;5101315;28;20020;-84
2022/06/22 21:54:43;;;;;;;13.15;7.15;;;24.80;99.90;;;;;;5071396;28;20027;-83
2022/06/22 21:57:45;;;;;;;13.30;7.60;;;24.80;99.90;;;;;;5108936;28;20016;-83
2022/06/22 22:00:20;;;;;;;15.02;7.85;;;24.80;99.90;;;;;;5097156;28;20090;-83
2022/06/22 22:03:12;;;;;;;18.27;7.88;;;24.80;99.90;;;;;;5107174;28;20024;-83
2022/06/22 22:05:46;;;;;;;12.50;7.50;;;24.80;99.90;;;;;;5099753;28;20031;-84
2022/06/22 22:08:17;;;;;;;14.35;7.65;;;24.80;99.90;;;;;;5100519;28;20028;-83
2022/06/22 22:10:48;;;;;;;27.23;8.05;;;24.70;99.90;;;;;;5103144;28;20379;-83
2022/06/22 22:13:16;;;;;;;11.30;7.23;;;24.70;99.90;;;;;;5107989;28;20077;-84
2022/06/22 22:15:46;;;;;;;10.93;7.70;;;24.70;99.90;;;;;;5104878;28;20361;-83
2022/06/22 22:18:17;;;;;;;13.25;7.65;;;24.70;99.90;;;;;;5098289;28;20046;-83
2022/06/22 22:20:48;;;;;;;21.20;7.95;;;24.70;99.90;;;;;;5100903;28;20030;-83
2022/06/22 22:23:27;;;;;;;10.48;7.65;;;24.60;99.90;;;;;;5104896;28;20016;-83
2022/06/22 22:26:19;;;;;;;10.63;7.18;;;24.60;99.90;;;;;;5100488;28;20020;-84
2022/06/22 22:29:07;;;;;;;11.23;6.95;;;24.50;99.90;;;;;;5106072;28;20037;-83
2022/06/22 22:31:33;;;;;;;11.05;8.05;;;24.40;99.90;;;;;;5112045;28;20084;-82
2022/06/22 22:33:59;;;;;;;13.48;7.65;;;24.20;99.90;;;;;;5107651;27;20510;-82
2022/06/22 22:36:34;;;;;;;12.18;7.35;;;24.10;99.90;;;;;;5105693;28;20450;-82
2022/06/22 22:39:06;;;;;;;11.98;8.02;;;24.00;99.90;;;;;;5087054;28;20072;-83
2022/06/22 22:41:31;;;;;;;14.85;8.05;;;24.00;99.90;;;;;;5112619;27;20023;-83
2022/06/22 22:44:07;;;;;;;11.57;7.85;;;23.90;99.90;;;;;;5109273;28;20079;-82
2022/06/22 22:46:43;;;;;;;12.68;7.70;;;23.90;99.90;;;;;;5111181;28;20038;-81
2022/06/22 22:49:17;;;;;;;13.50;8.07;;;23.80;99.90;;;;;;5103031;28;20398;-82
2022/06/22 22:51:56;;;;;;;8.65;7.72;;;23.70;99.90;;;;;;5104018;28;20488;-82
2022/06/22 22:54:24;;;;;;;10.77;8.48;;;23.70;99.90;;;;;;5105970;28;20131;-82
2022/06/22 22:57:14;;;;;;;16.13;7.75;;;23.60;99.90;;;;;;5096852;28;20020;-82
2022/06/22 22:59:48;;;;;;;12.27;8.80;;;23.50;99.90;;;;;;5082049;28;20032;-81
2022/06/22 23:02:39;;;;;;;13.10;8.50;;;23.50;99.90;;;;;;5100344;27;20027;-82
2022/06/22 23:05:13;;;;;;;12.63;8.60;;;23.50;99.90;;;;;;5088722;28;20067;-82
2022/06/22 23:07:39;;;;;;;15.38;8.27;;;23.50;99.90;;;;;;5095483;28;20026;-82
2022/06/22 23:10:22;;;;;;;9.85;8.00;;;23.60;99.90;;;;;;5102025;27;20125;-82
2022/06/22 23:12:49;;;;;;;10.73;8.32;;;23.60;99.90;;;;;;5094911;28;20026;-83
2022/06/22 23:15:21;;;;;;;14.02;8.15;;;23.50;99.90;;;;;;5099500;28;20078;-85
2022/06/22 23:17:47;;;;;;;15.80;9.15;;;23.50;99.90;;;;;;5110173;28;20020;-84
2022/06/22 23:20:15;;;;;;;11.38;8.95;;;23.50;99.90;;;;;;5082089;28;20023;-85
2022/06/22 23:22:50;;;;;;;15.10;8.48;;;23.50;99.90;;;;;;5094250;28;20020;-85
2022/06/22 23:25:24;;;;;;;14.32;8.43;;;23.40;99.90;;;;;;5103629;28;20118;-84
2022/06/22 23:27:57;;;;;;;10.90;8.50;;;23.40;99.90;;;;;;5094140;28;20023;-84
2022/06/22 23:30:25;;;;;;;12.90;8.55;;;23.40;99.90;;;;;;5086885;28;20116;-84
2022/06/22 23:32:52;;;;;;;12.75;9.20;;;23.40;99.90;;;;;;5113398;28;20016;-84
2022/06/22 23:35:29;;;;;;;14.07;8.18;;;23.40;99.90;;;;;;5100266;28;20032;-84
2022/06/22 23:37:56;;;;;;;14.07;8.57;;;23.40;99.90;;;;;;5075158;28;20020;-84
2022/06/22 23:40:27;;;;;;;16.15;9.00;;;23.30;99.90;;;;;;5109149;27;20057;-84
2022/06/22 23:43:20;;;;;;;11.80;9.20;;;23.30;99.90;;;;;;5093448;28;20027;-85
2022/06/22 23:45:47;;;;;;;9.95;8.95;;;23.30;99.90;;;;;;5083693;28;20042;-85
2022/06/22 23:48:30;;;;;;;14.95;9.75;;;23.20;99.90;;;;;;5074809;28;20027;-84
2022/06/22 23:51:05;;;;;;;18.42;9.40;;;23.10;99.90;;;;;;5098170;28;20036;-84
2022/06/22 23:53:40;;;;;;;13.15;9.20;;;23.10;99.90;;;;;;5078724;28;20020;-85
2022/06/22 23:56:11;;;;;;;18.30;9.73;;;23.00;99.90;;;;;;5094958;28;20024;-84
2022/06/22 23:58:38;;;;;;;15.35;9.57;;;23.00;99.90;;;;;;5093933;28;20019;-84
